Time,TemperatureF,DewpointF,PressureIn,WindDirection,WindDirectionDegrees,WindSpeedMPH,WindSpeedGustMPH,Humidity,HourlyPrecipIn,Conditions,Clouds,dailyrainin,SolarRadiationWatts/m^2,SoftwareType,DateUTC
2013-07-12 00:00:00,71.3,70.4,29.84,North,359,0.0,0.0,97,0.01,,OVC018,0.00,0.00,VWS V14.00,2013-07-12 04:00:00,
2013-07-12 01:00:00,71.0,70.1,29.86,SSE,160,0.0,0.0,97,0.01,,OVC018,0.00,0.00,VWS V14.00,2013-07-12 05:00:00,
2013-07-12 02:00:00,71.3,70.7,29.85,SSE,160,0.0,0.0,98,0.00,,OVC018,0.00,0.00,VWS V14.00,2013-07-12 06:00:00,
2013-07-12 03:00:00,71.4,70.8,29.84,NW,321,0.0,0.0,98,0.00,,OVC018,0.00,0.00,VWS V14.00,2013-07-12 07:00:00,
2013-07-12 04:00:00,71.2,70.6,29.81,South,186,0.0,0.0,98,0.00,,OVC018,0.00,0.00,VWS V14.00,2013-07-12 08:00:00,
2013-07-12 05:00:00,71.4,70.8,29.83,South,186,0.0,0.0,98,0.00,,OVC018,0.00,0.00,VWS V14.00,2013-07-12 09:00:00,
2013-07-12 06:00:00,71.5,70.9,29.84,South,186,0.0,0.0,98,0.00,,OVC018,0.00,5.00,VWS V14.00,2013-07-12 10:00:00,
2013-07-12 07:00:00,71.7,71.1,29.85,NE,49,0.0,0.0,98,0.00,,OVC018,0.00,28.00,VWS V14.00,2013-07-12 11:00:00,
2013-07-12 08:00:00,71.8,71.2,29.88,North,4,0.0,0.0,98,0.00,,OVC018,0.00,70.00,VWS V14.00,2013-07-12 12:00:00,
2013-07-12 09:00:00,71.8,71.2,29.89,NNW,347,0.0,0.0,98,0.00,,OVC018,0.00,199.00,VWS V14.00,2013-07-12 13:00:00,
2013-07-12 10:00:00,73.0,72.1,29.89,ENE,60,0.0,0.0,97,0.00,,OVC018,0.00,77.00,VWS V14.00,2013-07-12 14:00:00,
2013-07-12 11:00:00,75.1,72.9,29.89,ESE,118,0.0,0.0,93,0.00,,OVC018,0.00,336.00,VWS V14.00,2013-07-12 15:00:00,
2013-07-12 12:00:00,76.4,73.9,29.88,WNW,291,0.0,0.0,92,0.00,,OVC018,0.00,276.00,VWS V14.00,2013-07-12 16:00:00,
2013-07-12 13:00:00,78.7,74.5,29.87,North,0,0.0,0.0,87,0.00,,OVC018,0.00,533.00,VWS V14.00,2013-07-12 17:00:00,
2013-07-12 15:00:00,84.6,76.2,29.82,SE,125,1.0,4.0,76,0.01,,OVC018,0.01,847.00,VWS V14.00,2013-07-12 19:00:00,
2013-07-12 16:00:00,84.5,76.1,29.81,SE,139,0.0,0.0,76,0.01,,OVC018,0.01,211.00,VWS V14.00,2013-07-12 20:00:00,
2013-07-12 18:00:00,80.7,75.4,29.83,ESE,115,0.0,0.0,84,0.00,,OVC018,0.01,69.00,VWS V14.00,2013-07-12 22:00:00,
2013-07-12 20:00:00,77.1,74.6,29.84,South,169,0.0,0.0,92,0.00,,OVC018,0.01,0.00,VWS V14.00,2013-07-13 00:00:00,
2013-07-12 21:00:00,76.5,74.7,29.88,North,5,0.0,0.0,94,0.00,,OVC018,0.01,0.00,VWS V14.00,2013-07-13 01:00:00,
2013-07-12 22:00:00,69.6,68.4,29.93,ESE,104,0.0,2.0,96,1.12,,OVC018,1.13,0.00,VWS V14.00,2013-07-13 02:00:00,
2013-07-12 23:00:00,70.5,69.6,29.91,NNE,31,0.0,0.0,97,1.16,,OVC018,1.17,0.00,VWS V14.00,2013-07-13 03:00:00,